sensor_id;sensor_type;location;lat;lon;timestamp;P1;durP1;ratioP1;P2;durP2;ratioP2
22515;SDS011;11424;48.860;9.624;2023-02-07T00:02:16;29.9;;;52.3;;
22515;SDS011;11424;48.860;9.624;2023-02-07T00:07:16;26.8;;;44.6;;
22515;SDS011;11424;48.860;9.624;2023-02-07T00:12:16;29.1;;;51.7;;
22515;SDS011;11424;48.860;9.624;2023-02-07T00:17:16;24.9;;;43.7;;
22515;SDS011;11424;48.860;9.624;2023-02-07T00:22:16;22.7;;;43.7;;
22515;SDS011;11424;48.860;9.624;2023-02-07T00:27:17;29.9;;;55.6;;
22515;SDS011;11424;48.860;9.624;2023-02-07T00:32:16;27.2;;;48.2;;
22515;SDS011;11424;48.860;9.624;2023-02-07T00:37:16;22.8;;;42.9;;
22515;SDS011;11424;48.860;9.624;2023-02-07T00:42:16;17;;;34.5;;
22515;SDS011;11424;48.860;9.624;2023-02-07T00:47:16;242.9;;;547.8;;
22515;SDS011;11424;48.860;9.624;2023-02-07T00:52:16;257.2;;;606.6;;
22515;SDS011;11424;48.860;9.624;2023-02-07T00:57:16;225.1;;;525.6;;
22515;SDS011;11424;48.860;9.624;2023-02-07T01:02:16;193;;;490.7;;
22515;SDS011;11424;48.860;9.624;2023-02-07T01:07:16;204.4;;;513.4;;
22515;SDS011;11424;48.860;9.624;2023-02-07T01:12:16;214.7;;;518.8;;
22515;SDS011;11424;48.860;9.624;2023-02-07T01:17:16;154.6;;;433.2;;
22515;SDS011;11424;48.860;9.624;2023-02-07T01:22:16;106;;;256.2;;
22515;SDS011;11424;48.860;9.624;2023-02-07T01:27:16;255.3;;;618.4;;
22515;SDS011;11424;48.860;9.624;2023-02-07T01:32:16;356.9;;;726.2;;
22515;SDS011;11424;48.860;9.624;2023-02-07T01:37:16;456.6;;;725.7;;
22515;SDS011;11424;48.860;9.624;2023-02-07T01:42:17;480.4;;;701.3;;
22515;SDS011;11424;48.860;9.624;2023-02-07T01:47:17;432.4;;;736.7;;
22515;SDS011;11424;48.860;9.624;2023-02-07T01:52:17;453.8;;;724.9;;
22515;SDS011;11424;48.860;9.624;2023-02-07T01:57:18;372.4;;;561.2;;
22515;SDS011;11424;48.860;9.624;2023-02-07T02:02:18;276;;;412;;
22515;SDS011;11424;48.860;9.624;2023-02-07T02:07:16;193.4;;;289.7;;
22515;SDS011;11424;48.860;9.624;2023-02-07T02:12:24;126.1;;;195.7;;
22515;SDS011;11424;48.860;9.624;2023-02-07T02:17:18;238;;;336.1;;
22515;SDS011;11424;48.860;9.624;2023-02-07T02:22:21;448;;;544;;
22515;SDS011;11424;48.860;9.624;2023-02-07T02:27:20;421.6;;;513.8;;
22515;SDS011;11424;48.860;9.624;2023-02-07T02:32:31;566.7;;;681.5;;
22515;SDS011;11424;48.860;9.624;2023-02-07T02:37:18;552.8;;;699;;
22515;SDS011;11424;48.860;9.624;2023-02-07T02:42:17;419.8;;;547.3;;
22515;SDS011;11424;48.860;9.624;2023-02-07T02:47:17;443.2;;;561;;
22515;SDS011;11424;48.860;9.624;2023-02-07T02:52:17;377.5;;;510.3;;
22515;SDS011;11424;48.860;9.624;2023-02-07T02:57:28;254.6;;;337.7;;
22515;SDS011;11424;48.860;9.624;2023-02-07T03:02:20;212.1;;;301.7;;
22515;SDS011;11424;48.860;9.624;2023-02-07T03:07:21;443.3;;;591.1;;
22515;SDS011;11424;48.860;9.624;2023-02-07T03:12:17;428.2;;;568.2;;
22515;SDS011;11424;48.860;9.624;2023-02-07T03:17:17;275;;;387;;
22515;SDS011;11424;48.860;9.624;2023-02-07T03:22:17;418.5;;;549;;
22515;SDS011;11424;48.860;9.624;2023-02-07T03:27:17;203.9;;;291;;
22515;SDS011;11424;48.860;9.624;2023-02-07T03:32:17;311.6;;;431;;
22515;SDS011;11424;48.860;9.624;2023-02-07T03:37:17;386.4;;;520.2;;
22515;SDS011;11424;48.860;9.624;2023-02-07T03:42:19;441.2;;;562.1;;
22515;SDS011;11424;48.860;9.624;2023-02-07T03:47:17;42.1;;;79.5;;
22515;SDS011;11424;48.860;9.624;2023-02-07T03:52:17;104.6;;;189.1;;
22515;SDS011;11424;48.860;9.624;2023-02-07T03:57:17;132.6;;;236.7;;
22515;SDS011;11424;48.860;9.624;2023-02-07T04:02:17;128.7;;;233.6;;
22515;SDS011;11424;48.860;9.624;2023-02-07T04:07:17;148.9;;;259.8;;
22515;SDS011;11424;48.860;9.624;2023-02-07T04:12:17;198.1;;;346.5;;
22515;SDS011;11424;48.860;9.624;2023-02-07T04:17:17;152.4;;;286.1;;
22515;SDS011;11424;48.860;9.624;2023-02-07T04:22:17;156.1;;;344;;
22515;SDS011;11424;48.860;9.624;2023-02-07T04:27:17;115.6;;;287.8;;
22515;SDS011;11424;48.860;9.624;2023-02-07T04:32:17;117.1;;;338.9;;
22515;SDS011;11424;48.860;9.624;2023-02-07T04:37:17;115;;;354.5;;
22515;SDS011;11424;48.860;9.624;2023-02-07T04:42:17;109.9;;;320.3;;
22515;SDS011;11424;48.860;9.624;2023-02-07T04:47:17;111.7;;;340.5;;
22515;SDS011;11424;48.860;9.624;2023-02-07T04:52:17;80.3;;;257.9;;
22515;SDS011;11424;48.860;9.624;2023-02-07T04:57:17;68.9;;;238;;
22515;SDS011;11424;48.860;9.624;2023-02-07T05:02:17;57.5;;;191.2;;
22515;SDS011;11424;48.860;9.624;2023-02-07T05:07:17;52.4;;;164.5;;
22515;SDS011;11424;48.860;9.624;2023-02-07T05:12:17;55.8;;;186.5;;
22515;SDS011;11424;48.860;9.624;2023-02-07T05:17:17;49.8;;;165.4;;
22515;SDS011;11424;48.860;9.624;2023-02-07T05:22:17;40.2;;;131.6;;
22515;SDS011;11424;48.860;9.624;2023-02-07T05:27:17;41;;;134;;
22515;SDS011;11424;48.860;9.624;2023-02-07T05:32:17;41;;;136.6;;
22515;SDS011;11424;48.860;9.624;2023-02-07T05:37:17;32.6;;;102.2;;
22515;SDS011;11424;48.860;9.624;2023-02-07T05:42:17;41.4;;;137.7;;
22515;SDS011;11424;48.860;9.624;2023-02-07T05:47:17;36.1;;;121.4;;
22515;SDS011;11424;48.860;9.624;2023-02-07T05:52:17;40.4;;;133.3;;
22515;SDS011;11424;48.860;9.624;2023-02-07T05:57:17;39.5;;;120.5;;
22515;SDS011;11424;48.860;9.624;2023-02-07T06:02:17;47.6;;;154;;
22515;SDS011;11424;48.860;9.624;2023-02-07T06:07:17;30.1;;;85.2;;
22515;SDS011;11424;48.860;9.624;2023-02-07T06:12:17;26.6;;;69.4;;
22515;SDS011;11424;48.860;9.624;2023-02-07T06:17:17;33.8;;;102.4;;
22515;SDS011;11424;48.860;9.624;2023-02-07T06:22:17;22.8;;;60;;
22515;SDS011;11424;48.860;9.624;2023-02-07T06:27:17;27.2;;;74.6;;
22515;SDS011;11424;48.860;9.624;2023-02-07T06:32:17;38.2;;;98.6;;
22515;SDS011;11424;48.860;9.624;2023-02-07T06:37:17;32.9;;;72.6;;
22515;SDS011;11424;48.860;9.624;2023-02-07T06:42:17;29.3;;;62;;
22515;SDS011;11424;48.860;9.624;2023-02-07T06:47:17;26;;;51.9;;
22515;SDS011;11424;48.860;9.624;2023-02-07T06:52:17;21.4;;;49.3;;
22515;SDS011;11424;48.860;9.624;2023-02-07T06:57:17;14.2;;;32.5;;
22515;SDS011;11424;48.860;9.624;2023-02-07T07:02:17;14.9;;;34.9;;
22515;SDS011;11424;48.860;9.624;2023-02-07T07:07:17;17;;;39.6;;
22515;SDS011;11424;48.860;9.624;2023-02-07T07:12:17;18.7;;;48;;
22515;SDS011;11424;48.860;9.624;2023-02-07T07:17:17;19.8;;;50.7;;
22515;SDS011;11424;48.860;9.624;2023-02-07T07:22:17;18.6;;;47.5;;
22515;SDS011;11424;48.860;9.624;2023-02-07T07:27:17;17.7;;;43.8;;
22515;SDS011;11424;48.860;9.624;2023-02-07T07:32:17;21.7;;;55.4;;
22515;SDS011;11424;48.860;9.624;2023-02-07T07:37:17;37.9;;;122.5;;
22515;SDS011;11424;48.860;9.624;2023-02-07T07:42:17;23.1;;;59.9;;
22515;SDS011;11424;48.860;9.624;2023-02-07T07:47:17;20;;;46.9;;
22515;SDS011;11424;48.860;9.624;2023-02-07T07:52:17;29.2;;;74;;
22515;SDS011;11424;48.860;9.624;2023-02-07T07:57:17;26.2;;;63.6;;
22515;SDS011;11424;48.860;9.624;2023-02-07T08:02:17;26.3;;;61.9;;
22515;SDS011;11424;48.860;9.624;2023-02-07T08:07:17;25.1;;;58.7;;
22515;SDS011;11424;48.860;9.624;2023-02-07T08:12:18;27.5;;;66.2;;
22515;SDS011;11424;48.860;9.624;2023-02-07T08:17:17;22.4;;;52.9;;
22515;SDS011;11424;48.860;9.624;2023-02-07T08:22:17;32.7;;;83.3;;
22515;SDS011;11424;48.860;9.624;2023-02-07T08:27:17;27;;;62.6;;
22515;SDS011;11424;48.860;9.624;2023-02-07T08:32:17;18.1;;;38.9;;
22515;SDS011;11424;48.860;9.624;2023-02-07T08:37:17;21.3;;;52.8;;
22515;SDS011;11424;48.860;9.624;2023-02-07T08:42:17;17.6;;;39.8;;
22515;SDS011;11424;48.860;9.624;2023-02-07T08:47:17;20.8;;;48.5;;
22515;SDS011;11424;48.860;9.624;2023-02-07T08:52:17;24.8;;;52.4;;
22515;SDS011;11424;48.860;9.624;2023-02-07T09:12:19;19.7;;;46.3;;
22515;SDS011;11424;48.860;9.624;2023-02-07T09:17:19;20.3;;;48.5;;
22515;SDS011;11424;48.860;9.624;2023-02-07T09:22:19;20.8;;;49.6;;
22515;SDS011;11424;48.860;9.624;2023-02-07T09:27:19;19;;;47;;
22515;SDS011;11424;48.860;9.624;2023-02-07T09:32:19;18.1;;;43.8;;
22515;SDS011;11424;48.860;9.624;2023-02-07T09:37:19;16.9;;;38.9;;
22515;SDS011;11424;48.860;9.624;2023-02-07T09:42:21;18;;;41.9;;
22515;SDS011;11424;48.860;9.624;2023-02-07T09:47:19;18.5;;;42.1;;
22515;SDS011;11424;48.860;9.624;2023-02-07T09:52:20;37.8;;;103.2;;
22515;SDS011;11424;48.860;9.624;2023-02-07T09:57:20;18.3;;;45;;
22515;SDS011;11424;48.860;9.624;2023-02-07T10:02:21;17.4;;;42.1;;
22515;SDS011;11424;48.860;9.624;2023-02-07T10:07:19;16.3;;;39.3;;
22515;SDS011;11424;48.860;9.624;2023-02-07T10:12:24;20.1;;;42.8;;
22515;SDS011;11424;48.860;9.624;2023-02-07T10:17:23;49;;;137.3;;
22515;SDS011;11424;48.860;9.624;2023-02-07T10:22:21;45.2;;;130.4;;
22515;SDS011;11424;48.860;9.624;2023-02-07T10:27:21;35.6;;;94.9;;
22515;SDS011;11424;48.860;9.624;2023-02-07T10:32:19;47.7;;;138.7;;
22515;SDS011;11424;48.860;9.624;2023-02-07T10:37:21;51.6;;;158.8;;
22515;SDS011;11424;48.860;9.624;2023-02-07T10:42:19;58.3;;;177.2;;
22515;SDS011;11424;48.860;9.624;2023-02-07T10:47:19;41.5;;;119.7;;
22515;SDS011;11424;48.860;9.624;2023-02-07T10:52:25;38.8;;;112.2;;
22515;SDS011;11424;48.860;9.624;2023-02-07T10:57:19;52.3;;;159;;
22515;SDS011;11424;48.860;9.624;2023-02-07T11:02:36;50.3;;;157.1;;
22515;SDS011;11424;48.860;9.624;2023-02-07T11:07:19;126.1;;;401.6;;
22515;SDS011;11424;48.860;9.624;2023-02-07T11:12:20;100.7;;;225.8;;
22515;SDS011;11424;48.860;9.624;2023-02-07T11:17:19;130.4;;;302.6;;
22515;SDS011;11424;48.860;9.624;2023-02-07T11:22:20;103.3;;;222.2;;
22515;SDS011;11424;48.860;9.624;2023-02-07T11:27:20;50.9;;;101.6;;
22515;SDS011;11424;48.860;9.624;2023-02-07T11:32:20;51.4;;;103.5;;
22515;SDS011;11424;48.860;9.624;2023-02-07T11:37:21;55;;;105.8;;
22515;SDS011;11424;48.860;9.624;2023-02-07T11:42:20;72.5;;;133.9;;
22515;SDS011;11424;48.860;9.624;2023-02-07T11:47:20;99.5;;;167.2;;
22515;SDS011;11424;48.860;9.624;2023-02-07T11:52:19;80;;;140.4;;
22515;SDS011;11424;48.860;9.624;2023-02-07T11:57:19;101.3;;;163.4;;
22515;SDS011;11424;48.860;9.624;2023-02-07T12:02:20;72.1;;;124.2;;
22515;SDS011;11424;48.860;9.624;2023-02-07T12:07:20;65;;;119.4;;
22515;SDS011;11424;48.860;9.624;2023-02-07T12:12:22;34.4;;;58.2;;
22515;SDS011;11424;48.860;9.624;2023-02-07T12:17:20;36.6;;;59;;
22515;SDS011;11424;48.860;9.624;2023-02-07T12:22:20;54.2;;;77.2;;
22515;SDS011;11424;48.860;9.624;2023-02-07T12:27:19;46.5;;;63.9;;
22515;SDS011;11424;48.860;9.624;2023-02-07T12:32:20;57;;;86.5;;
22515;SDS011;11424;48.860;9.624;2023-02-07T12:37:20;42.4;;;68.7;;
22515;SDS011;11424;48.860;9.624;2023-02-07T12:42:23;38.1;;;59.5;;
22515;SDS011;11424;48.860;9.624;2023-02-07T12:47:20;44.1;;;75;;
22515;SDS011;11424;48.860;9.624;2023-02-07T12:52:22;58.9;;;92.6;;
22515;SDS011;11424;48.860;9.624;2023-02-07T12:57:20;57.6;;;64.4;;
22515;SDS011;11424;48.860;9.624;2023-02-07T13:02:23;57.7;;;64.1;;
22515;SDS011;11424;48.860;9.624;2023-02-07T13:07:23;39.4;;;48.1;;
22515;SDS011;11424;48.860;9.624;2023-02-07T13:12:20;72.3;;;88.9;;
22515;SDS011;11424;48.860;9.624;2023-02-07T13:17:26;41.4;;;58.4;;
22515;SDS011;11424;48.860;9.624;2023-02-07T13:22:21;28.9;;;45.3;;
22515;SDS011;11424;48.860;9.624;2023-02-07T13:27:21;23.8;;;38.6;;
22515;SDS011;11424;48.860;9.624;2023-02-07T13:32:20;31;;;49.2;;
22515;SDS011;11424;48.860;9.624;2023-02-07T13:37:19;45.2;;;64.6;;
22515;SDS011;11424;48.860;9.624;2023-02-07T13:42:20;16.9;;;31.8;;
22515;SDS011;11424;48.860;9.624;2023-02-07T13:47:26;15.8;;;28.1;;
22515;SDS011;11424;48.860;9.624;2023-02-07T13:52:21;32.3;;;47.5;;
22515;SDS011;11424;48.860;9.624;2023-02-07T13:57:20;26;;;43.1;;
22515;SDS011;11424;48.860;9.624;2023-02-07T14:02:19;31.7;;;54.8;;
22515;SDS011;11424;48.860;9.624;2023-02-07T14:07:20;29.9;;;53;;
22515;SDS011;11424;48.860;9.624;2023-02-07T14:12:20;28.8;;;54.4;;
22515;SDS011;11424;48.860;9.624;2023-02-07T14:22:21;31.6;;;61.4;;
22515;SDS011;11424;48.860;9.624;2023-02-07T14:27:24;16.1;;;30.1;;
22515;SDS011;11424;48.860;9.624;2023-02-07T14:32:24;32.9;;;58.4;;
22515;SDS011;11424;48.860;9.624;2023-02-07T14:37:19;24.7;;;37.6;;
22515;SDS011;11424;48.860;9.624;2023-02-07T14:42:19;28.6;;;43.8;;
22515;SDS011;11424;48.860;9.624;2023-02-07T14:47:20;26.5;;;41.2;;
22515;SDS011;11424;48.860;9.624;2023-02-07T14:52:20;25.7;;;39.1;;
22515;SDS011;11424;48.860;9.624;2023-02-07T14:57:24;37.1;;;56.3;;
22515;SDS011;11424;48.860;9.624;2023-02-07T15:02:27;49.8;;;70.2;;
22515;SDS011;11424;48.860;9.624;2023-02-07T15:07:19;37.7;;;61.4;;
22515;SDS011;11424;48.860;9.624;2023-02-07T15:12:20;53;;;77.9;;
22515;SDS011;11424;48.860;9.624;2023-02-07T15:17:19;40.6;;;59.3;;
22515;SDS011;11424;48.860;9.624;2023-02-07T15:22:22;41.6;;;52.9;;
22515;SDS011;11424;48.860;9.624;2023-02-07T15:27:20;37.3;;;56.7;;
22515;SDS011;11424;48.860;9.624;2023-02-07T15:32:20;35.8;;;53.8;;
22515;SDS011;11424;48.860;9.624;2023-02-07T15:37:20;30.3;;;46.3;;
22515;SDS011;11424;48.860;9.624;2023-02-07T15:42:19;30.7;;;47;;
22515;SDS011;11424;48.860;9.624;2023-02-07T15:47:35;39.9;;;63.8;;
22515;SDS011;11424;48.860;9.624;2023-02-07T15:52:21;24.5;;;38.5;;
22515;SDS011;11424;48.860;9.624;2023-02-07T15:57:20;43.7;;;59.2;;
22515;SDS011;11424;48.860;9.624;2023-02-07T16:02:21;42.7;;;51;;
22515;SDS011;11424;48.860;9.624;2023-02-07T16:07:20;47.5;;;95.6;;
22515;SDS011;11424;48.860;9.624;2023-02-07T16:12:27;53.8;;;91.6;;
22515;SDS011;11424;48.860;9.624;2023-02-07T16:17:21;50.1;;;84.7;;
22515;SDS011;11424;48.860;9.624;2023-02-07T16:22:20;62.7;;;102.1;;
22515;SDS011;11424;48.860;9.624;2023-02-07T16:27:20;96.6;;;153.4;;
22515;SDS011;11424;48.860;9.624;2023-02-07T16:32:19;119.4;;;194.8;;
22515;SDS011;11424;48.860;9.624;2023-02-07T16:37:19;76.8;;;102.4;;
22515;SDS011;11424;48.860;9.624;2023-02-07T16:42:19;80.4;;;101.1;;
22515;SDS011;11424;48.860;9.624;2023-02-07T16:47:19;78.2;;;99.8;;
22515;SDS011;11424;48.860;9.624;2023-02-07T16:52:19;111;;;165.2;;
22515;SDS011;11424;48.860;9.624;2023-02-07T16:57:19;87.8;;;116.6;;
22515;SDS011;11424;48.860;9.624;2023-02-07T17:02:19;67.4;;;104.5;;
22515;SDS011;11424;48.860;9.624;2023-02-07T17:07:19;31.2;;;41.2;;
22515;SDS011;11424;48.860;9.624;2023-02-07T17:12:19;57.2;;;92;;
22515;SDS011;11424;48.860;9.624;2023-02-07T17:17:19;58.6;;;90.1;;
22515;SDS011;11424;48.860;9.624;2023-02-07T17:22:19;32.1;;;53.6;;
22515;SDS011;11424;48.860;9.624;2023-02-07T17:27:19;39.2;;;65.3;;
22515;SDS011;11424;48.860;9.624;2023-02-07T17:32:19;80.8;;;132;;
22515;SDS011;11424;48.860;9.624;2023-02-07T17:37:19;124.4;;;212.6;;
22515;SDS011;11424;48.860;9.624;2023-02-07T17:42:19;119.1;;;209.3;;
22515;SDS011;11424;48.860;9.624;2023-02-07T17:47:19;84.4;;;139;;
22515;SDS011;11424;48.860;9.624;2023-02-07T17:52:19;92.5;;;169;;
22515;SDS011;11424;48.860;9.624;2023-02-07T17:57:19;92;;;163.1;;
22515;SDS011;11424;48.860;9.624;2023-02-07T18:02:19;122.2;;;220.5;;
22515;SDS011;11424;48.860;9.624;2023-02-07T18:07:19;132.8;;;241.6;;
22515;SDS011;11424;48.860;9.624;2023-02-07T18:12:19;170.3;;;378.7;;
22515;SDS011;11424;48.860;9.624;2023-02-07T18:17:19;173.1;;;423.1;;
22515;SDS011;11424;48.860;9.624;2023-02-07T18:22:19;159.9;;;340.1;;
22515;SDS011;11424;48.860;9.624;2023-02-07T18:27:19;166.4;;;378.4;;
22515;SDS011;11424;48.860;9.624;2023-02-07T18:32:19;193;;;477.8;;
22515;SDS011;11424;48.860;9.624;2023-02-07T18:37:19;178.2;;;453.3;;
22515;SDS011;11424;48.860;9.624;2023-02-07T18:42:19;184.8;;;472.4;;
22515;SDS011;11424;48.860;9.624;2023-02-07T18:47:19;223.5;;;545.1;;
22515;SDS011;11424;48.860;9.624;2023-02-07T18:52:19;203.1;;;494;;
22515;SDS011;11424;48.860;9.624;2023-02-07T18:57:19;158.4;;;393.3;;
22515;SDS011;11424;48.860;9.624;2023-02-07T19:02:19;143.6;;;316.9;;
22515;SDS011;11424;48.860;9.624;2023-02-07T19:07:19;132.2;;;280.2;;
22515;SDS011;11424;48.860;9.624;2023-02-07T19:12:19;158.8;;;411.3;;
22515;SDS011;11424;48.860;9.624;2023-02-07T19:17:19;64.5;;;188.3;;
22515;SDS011;11424;48.860;9.624;2023-02-07T19:22:19;73.1;;;215.4;;
22515;SDS011;11424;48.860;9.624;2023-02-07T19:27:19;68;;;211.3;;
22515;SDS011;11424;48.860;9.624;2023-02-07T19:32:19;69.3;;;213.1;;
22515;SDS011;11424;48.860;9.624;2023-02-07T19:37:19;72.5;;;237;;
22515;SDS011;11424;48.860;9.624;2023-02-07T19:42:19;69;;;232.8;;
22515;SDS011;11424;48.860;9.624;2023-02-07T19:47:19;81.5;;;272;;
22515;SDS011;11424;48.860;9.624;2023-02-07T19:52:20;110.9;;;361.7;;
22515;SDS011;11424;48.860;9.624;2023-02-07T19:57:19;96.8;;;313.3;;
22515;SDS011;11424;48.860;9.624;2023-02-07T20:02:19;104.2;;;341.4;;
22515;SDS011;11424;48.860;9.624;2023-02-07T20:07:19;64;;;204.6;;
22515;SDS011;11424;48.860;9.624;2023-02-07T20:12:19;70.7;;;232.6;;
22515;SDS011;11424;48.860;9.624;2023-02-07T20:17:19;73;;;246.5;;
22515;SDS011;11424;48.860;9.624;2023-02-07T20:22:19;71.2;;;240.1;;
22515;SDS011;11424;48.860;9.624;2023-02-07T20:27:19;102.9;;;338.1;;
22515;SDS011;11424;48.860;9.624;2023-02-07T20:32:19;76.8;;;249.7;;
22515;SDS011;11424;48.860;9.624;2023-02-07T20:37:19;101.2;;;323.8;;
22515;SDS011;11424;48.860;9.624;2023-02-07T20:42:19;79.6;;;261.6;;
22515;SDS011;11424;48.860;9.624;2023-02-07T20:47:19;88.7;;;297;;
22515;SDS011;11424;48.860;9.624;2023-02-07T20:52:19;78.5;;;262.7;;
22515;SDS011;11424;48.860;9.624;2023-02-07T20:57:19;79.6;;;267;;
22515;SDS011;11424;48.860;9.624;2023-02-07T21:02:19;97.5;;;310.4;;
22515;SDS011;11424;48.860;9.624;2023-02-07T21:07:19;77;;;245.5;;
22515;SDS011;11424;48.860;9.624;2023-02-07T21:12:19;79;;;263.6;;
22515;SDS011;11424;48.860;9.624;2023-02-07T21:17:19;71.1;;;235.3;;
22515;SDS011;11424;48.860;9.624;2023-02-07T21:22:19;79.6;;;262.7;;
22515;SDS011;11424;48.860;9.624;2023-02-07T21:27:19;71.7;;;233.3;;
22515;SDS011;11424;48.860;9.624;2023-02-07T21:32:19;61.8;;;197.2;;
22515;SDS011;11424;48.860;9.624;2023-02-07T21:37:19;95.6;;;323.9;;
22515;SDS011;11424;48.860;9.624;2023-02-07T21:42:20;67;;;219.2;;
22515;SDS011;11424;48.860;9.624;2023-02-07T21:47:19;72.7;;;241;;
22515;SDS011;11424;48.860;9.624;2023-02-07T21:52:19;74.5;;;245;;
22515;SDS011;11424;48.860;9.624;2023-02-07T21:57:19;77.7;;;258.8;;
22515;SDS011;11424;48.860;9.624;2023-02-07T22:02:20;68.1;;;217.7;;
22515;SDS011;11424;48.860;9.624;2023-02-07T22:07:19;51.7;;;160.8;;
22515;SDS011;11424;48.860;9.624;2023-02-07T22:12:19;68.2;;;219.9;;
22515;SDS011;11424;48.860;9.624;2023-02-07T22:17:19;51.2;;;158.5;;
22515;SDS011;11424;48.860;9.624;2023-02-07T22:22:20;64.5;;;207.7;;
22515;SDS011;11424;48.860;9.624;2023-02-07T22:27:20;62.3;;;188.3;;
22515;SDS011;11424;48.860;9.624;2023-02-07T22:32:19;98.9;;;303;;
22515;SDS011;11424;48.860;9.624;2023-02-07T22:37:19;72.2;;;209.4;;
22515;SDS011;11424;48.860;9.624;2023-02-07T22:42:20;58.5;;;184.6;;
22515;SDS011;11424;48.860;9.624;2023-02-07T22:47:20;48.9;;;154.6;;
22515;SDS011;11424;48.860;9.624;2023-02-07T22:52:20;55.5;;;174.7;;
22515;SDS011;11424;48.860;9.624;2023-02-07T22:57:20;51.9;;;163.7;;
22515;SDS011;11424;48.860;9.624;2023-02-07T23:02:20;50.4;;;159.4;;
22515;SDS011;11424;48.860;9.624;2023-02-07T23:07:20;45;;;139.7;;
22515;SDS011;11424;48.860;9.624;2023-02-07T23:12:20;51.8;;;165.7;;
22515;SDS011;11424;48.860;9.624;2023-02-07T23:17:20;49.2;;;158;;
22515;SDS011;11424;48.860;9.624;2023-02-07T23:22:20;50.2;;;158.7;;
22515;SDS011;11424;48.860;9.624;2023-02-07T23:27:20;50.6;;;161.2;;
22515;SDS011;11424;48.860;9.624;2023-02-07T23:32:20;60.9;;;195.5;;
22515;SDS011;11424;48.860;9.624;2023-02-07T23:37:20;48.3;;;151.4;;
22515;SDS011;11424;48.860;9.624;2023-02-07T23:42:20;55.6;;;178.1;;
22515;SDS011;11424;48.860;9.624;2023-02-07T23:47:20;51.6;;;167.8;;
22515;SDS011;11424;48.860;9.624;2023-02-07T23:52:20;52.7;;;172.1;;
22515;SDS011;11424;48.860;9.624;2023-02-07T23:57:20;53.9;;;172.1;;
